Time;durP1;ratioP1;P1;durP2;ratioP2;P2;SDS_P1;SDS_P2;PMS_P1;PMS_P2;Temp;Humidity;BMP_temperature;BMP_pressure;BME280_temperature;BME280_humidity;BME280_pressure;Samples;Min_cycle;Max_cycle;Signal;HPM_P1;HPM_P2
2023/08/22 00:00:45;;;;;;;;;;;25.10;99.90;;;;;;5114029;28;19914;-70
2023/08/22 00:03:11;;;;;;;;;;;25.00;99.90;;;;;;5114462;28;19912;-70
2023/08/22 00:05:37;;;;;;;;;;;25.00;99.90;;;;;;5095642;28;19944;-70
2023/08/22 00:08:05;;;;;;;;;;;25.00;99.90;;;;;;5113936;28;19964;-70
2023/08/22 00:10:31;;;;;;;;;;;25.00;99.90;;;;;;5113987;28;19981;-70
2023/08/22 00:12:57;;;;;;;;;;;25.00;99.90;;;;;;5095607;28;19915;-70
2023/08/22 00:15:23;;;;;;;;;;;25.00;99.90;;;;;;5095607;28;19908;-70
2023/08/22 00:17:50;;;;;;;;;;;25.00;99.90;;;;;;5113768;28;19916;-70
2023/08/22 00:20:17;;;;;;;;;;;25.00;99.90;;;;;;5113855;28;20007;-70
2023/08/22 00:22:43;;;;;;;;;;;25.00;99.90;;;;;;5113865;28;20008;-70
2023/08/22 00:25:09;;;;;;;;;;;25.10;99.90;;;;;;5114124;28;19945;-70
2023/08/22 00:27:35;;;;;;;;;;;25.10;99.90;;;;;;5113825;28;20274;-71
2023/08/22 00:30:02;;;;;;;;;;;25.10;99.90;;;;;;5114057;28;20399;-70
2023/08/22 00:32:27;;;;;;;;;;;25.10;99.90;;;;;;5113586;28;19908;-70
2023/08/22 00:34:53;;;;;;;;;;;25.10;99.90;;;;;;5113467;28;20044;-70
2023/08/22 00:37:19;;;;;;;;;;;25.10;99.90;;;;;;5114211;28;19916;-70
2023/08/22 00:39:45;;;;;;;;;;;25.10;99.90;;;;;;5113946;28;20368;-70
2023/08/22 00:42:11;;;;;;;;;;;25.20;99.90;;;;;;5113613;28;19914;-70
2023/08/22 00:44:37;;;;;;;;;;;25.20;99.90;;;;;;5114203;28;20306;-70
2023/08/22 00:47:03;;;;;;;;;;;25.20;99.90;;;;;;5113727;28;19907;-71
2023/08/22 00:49:29;;;;;;;;;;;25.30;99.90;;;;;;5115790;28;19908;-70
2023/08/22 00:51:56;;;;;;;;;;;25.30;99.90;;;;;;5113820;28;19912;-70
2023/08/22 00:54:23;;;;;;;;;;;25.30;99.90;;;;;;5114037;28;19996;-70
2023/08/22 00:56:49;;;;;;;;;;;25.30;99.90;;;;;;5113736;28;20356;-71
2023/08/22 00:59:16;;;;;;;;;;;25.30;99.90;;;;;;5114111;28;19908;-70
2023/08/22 01:01:41;;;;;;;;;;;25.30;99.90;;;;;;5113526;28;19912;-71
2023/08/22 01:04:07;;;;;;;;;;;25.30;99.90;;;;;;5117837;28;19915;-70
2023/08/22 01:06:51;;;;;;;;;;;25.30;99.90;;;;;;5117347;28;19998;-70
2023/08/22 01:09:20;;;;;;;;;;;25.30;99.90;;;;;;5117776;28;19908;-70
2023/08/22 01:11:49;;;;;;;;;;;25.30;99.90;;;;;;5117259;28;19947;-70
2023/08/22 01:14:17;;;;;;;;;;;25.30;99.90;;;;;;5117138;28;19908;-70
2023/08/22 01:16:44;;;;;;;;;;;25.30;99.90;;;;;;5117232;28;19984;-70
2023/08/22 01:19:11;;;;;;;;;;;25.30;99.90;;;;;;5117594;28;19919;-70
2023/08/22 01:21:42;;;;;;;;;;;25.30;99.90;;;;;;5117054;28;20328;-70
2023/08/22 01:24:08;;;;;;;;;;;25.30;99.90;;;;;;5116993;28;20006;-70
2023/08/22 01:26:34;;;;;;;;;;;25.20;99.90;;;;;;5116756;28;19982;-70
2023/08/22 01:29:08;;;;;;;;;;;25.20;99.90;;;;;;5116876;28;20431;-70
2023/08/22 01:32:00;;;;;;;;;;;25.20;99.90;;;;;;5116511;28;20320;-70
2023/08/22 01:34:28;;;;;;;;;;;25.30;99.90;;;;;;5033744;28;19921;-70
2023/08/22 01:36:54;;;;;;;;;;;25.20;99.90;;;;;;5034198;28;20401;-70
2023/08/22 01:39:21;;;;;;;;;;;25.20;99.90;;;;;;5034202;28;20000;-70
2023/08/22 01:41:47;;;;;;;;;;;25.20;99.90;;;;;;5034551;28;20036;-71
2023/08/22 01:44:13;;;;;;;;;;;25.20;99.90;;;;;;5034159;28;20358;-70
2023/08/22 01:46:39;;;;;;;;;;;25.20;99.90;;;;;;5033685;28;20051;-70
2023/08/22 01:49:04;;;;;;;;;;;25.20;99.90;;;;;;5034170;28;19910;-70
2023/08/22 01:51:30;;;;;;;;;;;25.10;99.90;;;;;;5034131;28;19968;-71
2023/08/22 01:53:56;;;;;;;;;;;25.10;99.90;;;;;;5033690;28;20416;-70
2023/08/22 01:56:22;;;;;;;;;;;25.10;99.90;;;;;;5034155;28;19910;-70
2023/08/22 01:58:47;;;;;;;;;;;25.00;99.90;;;;;;5034053;28;19913;-70
2023/08/22 02:01:13;;;;;;;;;;;25.00;99.90;;;;;;5033430;28;19924;-70
2023/08/22 02:03:40;;;;;;;;;;;25.00;99.90;;;;;;5033482;28;19916;-70
2023/08/22 02:06:06;;;;;;;;;;;24.90;99.90;;;;;;5033455;28;19909;-70
2023/08/22 02:08:31;;;;;;;;;;;25.00;99.90;;;;;;5033472;28;19932;-70
2023/08/22 02:10:57;;;;;;;;;;;24.90;99.90;;;;;;5058597;28;19908;-70
2023/08/22 02:13:23;;;;;;;;;;;24.90;99.90;;;;;;5094918;28;19912;-71
2023/08/22 02:15:49;;;;;;;;;;;24.90;99.90;;;;;;5093989;28;20429;-70
2023/08/22 02:18:15;;;;;;;;;;;24.80;99.90;;;;;;5096436;28;19916;-70
2023/08/22 02:20:41;;;;;;;;;;;24.80;99.90;;;;;;5095518;28;19908;-71
2023/08/22 02:23:07;;;;;;;;;;;24.80;99.90;;;;;;5095303;28;19908;-70
2023/08/22 02:25:32;;;;;;;;;;;24.80;99.90;;;;;;5095752;28;19908;-70
2023/08/22 02:27:58;;;;;;;;;;;24.80;99.90;;;;;;5093927;28;19956;-71
2023/08/22 02:30:25;;;;;;;;;;;24.70;99.90;;;;;;5095198;28;19912;-70
2023/08/22 02:32:51;;;;;;;;;;;24.70;99.90;;;;;;5095069;28;20012;-72
2023/08/22 02:35:17;;;;;;;;;;;24.70;99.90;;;;;;5111432;28;20031;-71
2023/08/22 02:37:42;;;;;;;;;;;24.70;99.90;;;;;;5115414;28;20018;-70
2023/08/22 02:40:09;;;;;;;;;;;24.60;99.90;;;;;;5115952;28;19908;-70
2023/08/22 02:42:35;;;;;;;;;;;24.60;99.90;;;;;;5115669;28;19965;-69
2023/08/22 02:45:01;;;;;;;;;;;24.60;99.90;;;;;;5115632;28;19943;-70
2023/08/22 02:47:28;;;;;;;;;;;24.60;99.90;;;;;;5115161;28;19953;-70
2023/08/22 02:49:54;;;;;;;;;;;24.60;99.90;;;;;;5115271;28;19918;-70
2023/08/22 02:52:20;;;;;;;;;;;24.50;99.90;;;;;;5115548;28;19908;-70
2023/08/22 02:54:45;;;;;;;;;;;24.50;99.90;;;;;;5115619;28;19919;-70
2023/08/22 02:57:11;;;;;;;;;;;24.50;99.90;;;;;;5114999;28;19946;-70
2023/08/22 02:59:37;;;;;;;;;;;24.50;99.90;;;;;;5115539;28;19951;-70
2023/08/22 03:02:03;;;;;;;;;;;24.40;99.90;;;;;;5114811;28;19908;-71
2023/08/22 03:04:30;;;;;;;;;;;24.40;99.90;;;;;;5115440;28;19998;-70
2023/08/22 03:06:56;;;;;;;;;;;24.40;99.90;;;;;;5114795;28;19914;-70
2023/08/22 03:09:22;;;;;;;;;;;24.40;99.90;;;;;;5114826;28;20002;-70
2023/08/22 03:11:47;;;;;;;;;;;24.50;99.90;;;;;;5114666;28;19908;-70
2023/08/22 03:14:13;;;;;;;;;;;24.50;99.90;;;;;;5114656;28;19908;-70
2023/08/22 03:16:39;;;;;;;;;;;24.50;99.90;;;;;;5114782;28;19912;-70
2023/08/22 03:19:05;;;;;;;;;;;24.50;99.90;;;;;;5115161;28;19923;-70
2023/08/22 03:21:31;;;;;;;;;;;24.60;99.90;;;;;;5114501;28;19908;-70
2023/08/22 03:23:58;;;;;;;;;;;24.60;99.90;;;;;;5114464;28;19919;-71
2023/08/22 03:26:25;;;;;;;;;;;24.60;99.90;;;;;;5114284;28;19908;-69
2023/08/22 03:28:50;;;;;;;;;;;24.60;99.90;;;;;;5114670;28;19908;-71
2023/08/22 03:31:16;;;;;;;;;;;24.60;99.90;;;;;;5114152;28;19908;-70
2023/08/22 03:33:43;;;;;;;;;;;24.60;99.90;;;;;;5114480;28;19947;-70
2023/08/22 03:36:08;;;;;;;;;;;24.50;99.90;;;;;;5114524;28;19962;-70
2023/08/22 03:38:34;;;;;;;;;;;24.50;99.90;;;;;;5114184;28;20010;-70
2023/08/22 03:41:00;;;;;;;;;;;24.50;99.90;;;;;;5114203;28;20274;-70
2023/08/22 03:43:26;;;;;;;;;;;24.50;99.90;;;;;;5114597;28;19915;-70
2023/08/22 03:45:52;;;;;;;;;;;24.50;99.90;;;;;;5114494;28;19915;-71
2023/08/22 03:48:18;;;;;;;;;;;24.50;99.90;;;;;;5115738;28;19943;-70
2023/08/22 03:50:44;;;;;;;;;;;24.40;99.90;;;;;;5114339;28;20006;-70
2023/08/22 03:53:11;;;;;;;;;;;24.40;99.90;;;;;;5113878;28;19950;-70
2023/08/22 03:55:36;;;;;;;;;;;24.40;99.90;;;;;;5114535;28;19911;-70
2023/08/22 03:58:02;;;;;;;;;;;24.40;99.90;;;;;;5113915;28;19984;-71
2023/08/22 04:00:29;;;;;;;;;;;24.40;99.90;;;;;;5113922;28;19908;-70
2023/08/22 04:02:56;;;;;;;;;;;24.40;99.90;;;;;;5113819;28;19908;-70
2023/08/22 04:05:22;;;;;;;;;;;24.40;99.90;;;;;;5114261;28;19943;-71
2023/08/22 04:07:48;;;;;;;;;;;24.40;99.90;;;;;;5114284;28;20002;-70
2023/08/22 04:10:14;;;;;;;;;;;24.50;99.90;;;;;;5113968;28;19908;-70
2023/08/22 04:12:39;;;;;;;;;;;24.50;99.90;;;;;;5114456;28;19952;-70
2023/08/22 04:15:05;;;;;;;;;;;24.50;99.90;;;;;;5113827;28;19914;-70
2023/08/22 04:17:31;;;;;;;;;;;24.40;99.90;;;;;;5113530;28;19945;-70
2023/08/22 04:19:57;;;;;;;;;;;24.40;99.90;;;;;;5095588;28;20028;-70
2023/08/22 04:22:23;;;;;;;;;;;24.40;99.90;;;;;;5113719;28;19915;-70
2023/08/22 04:24:49;;;;;;;;;;;24.40;99.90;;;;;;5113686;28;19938;-70
2023/08/22 04:27:15;;;;;;;;;;;24.40;99.90;;;;;;5114235;28;20329;-70
2023/08/22 04:29:41;;;;;;;;;;;24.50;99.90;;;;;;5113653;28;19908;-70
2023/08/22 04:32:07;;;;;;;;;;;24.50;99.90;;;;;;5113637;28;20381;-70
2023/08/22 04:34:33;;;;;;;;;;;24.50;99.90;;;;;;5113493;28;19915;-71
2023/08/22 04:36:58;;;;;;;;;;;24.50;99.90;;;;;;5114761;28;19955;-70
2023/08/22 04:39:24;;;;;;;;;;;24.60;99.90;;;;;;5118044;28;19998;-69
2023/08/22 04:41:50;;;;;;;;;;;24.60;99.90;;;;;;5117637;28;19908;-70
2023/08/22 04:44:16;;;;;;;;;;;24.60;99.90;;;;;;5118327;28;19908;-70
2023/08/22 04:46:42;;;;;;;;;;;24.60;99.90;;;;;;5117466;28;19972;-69
2023/08/22 04:49:08;;;;;;;;;;;24.60;99.90;;;;;;5117709;28;19915;-69
2023/08/22 04:51:33;;;;;;;;;;;24.70;99.90;;;;;;5117600;28;19915;-70
2023/08/22 04:53:59;;;;;;;;;;;24.70;99.90;;;;;;5118001;28;19915;-70
2023/08/22 04:56:25;;;;;;;;;;;24.80;99.90;;;;;;5117631;28;20046;-70
2023/08/22 04:58:52;;;;;;;;;;;24.90;99.90;;;;;;5117941;28;19932;-70
2023/08/22 05:01:18;;;;;;;;;;;24.90;99.90;;;;;;5117230;28;20354;-70
2023/08/22 05:03:45;;;;;;;;;;;24.90;99.90;;;;;;5117382;28;19907;-70
2023/08/22 05:06:11;;;;;;;;;;;24.90;99.90;;;;;;5117283;28;19976;-71
2023/08/22 05:08:37;;;;;;;;;;;24.90;99.90;;;;;;5117532;28;19908;-69
2023/08/22 05:11:04;;;;;;;;;;;25.00;99.90;;;;;;5117242;28;20351;-70
2023/08/22 05:13:29;;;;;;;;;;;25.20;99.90;;;;;;5117218;28;20454;-71
2023/08/22 05:15:55;;;;;;;;;;;25.40;99.90;;;;;;5119793;28;19947;-69
2023/08/22 05:18:21;;;;;;;;;;;25.70;99.90;;;;;;5117520;28;19916;-71
2023/08/22 05:20:53;;;;;;;;;;;26.30;99.90;;;;;;5098340;28;19916;-70
2023/08/22 05:23:19;;;;;;;;;;;27.10;99.90;;;;;;5116607;28;19931;-71
2023/08/22 05:25:44;;;;;;;;;;;27.70;99.90;;;;;;5116516;28;20316;-70
2023/08/22 05:28:10;;;;;;;;;;;28.20;99.90;;;;;;5116517;28;19915;-71
2023/08/22 05:30:37;;;;;;;;;;;28.70;99.90;;;;;;5116569;28;19915;-70
2023/08/22 05:33:04;;;;;;;;;;;29.20;99.90;;;;;;5116279;28;19908;-70
2023/08/22 05:35:29;;;;;;;;;;;29.00;99.90;;;;;;5116225;28;20239;-71
2023/08/22 05:37:55;;;;;;;;;;;28.60;99.90;;;;;;5116355;28;20371;-72
2023/08/22 05:40:21;;;;;;;;;;;28.50;99.90;;;;;;5116865;28;19908;-68
2023/08/22 05:42:47;;;;;;;;;;;28.50;99.90;;;;;;5098355;28;19908;-71
2023/08/22 05:45:13;;;;;;;;;;;28.70;99.90;;;;;;5116172;28;19914;-71
2023/08/22 05:47:38;;;;;;;;;;;29.30;99.90;;;;;;5115640;28;20355;-70
2023/08/22 05:50:05;;;;;;;;;;;29.70;99.90;;;;;;5115224;28;19936;-71
2023/08/22 05:52:30;;;;;;;;;;;30.20;99.90;;;;;;5115968;28;19915;-71
2023/08/22 05:54:56;;;;;;;;;;;29.80;99.90;;;;;;5116461;28;19907;-71
2023/08/22 05:57:23;;;;;;;;;;;29.10;99.90;;;;;;5116632;28;19985;-69
2023/08/22 05:59:49;;;;;;;;;;;29.40;99.90;;;;;;5116088;28;20315;-71
2023/08/22 06:02:15;;;;;;;;;;;29.60;99.90;;;;;;5115674;28;19966;-71
2023/08/22 06:04:41;;;;;;;;;;;29.60;99.90;;;;;;5116480;28;20375;-71
2023/08/22 06:07:07;;;;;;;;;;;29.90;99.90;;;;;;5115946;28;19968;-69
2023/08/22 06:09:32;;;;;;;;;;;30.20;99.90;;;;;;5116080;28;19908;-70
2023/08/22 06:11:59;;;;;;;;;;;30.60;99.90;;;;;;5115886;28;19908;-70
2023/08/22 06:14:25;;;;;;;;;;;30.60;99.90;;;;;;5115726;28;19998;-71
2023/08/22 06:16:50;;;;;;;;;;;31.10;99.90;;;;;;5115562;28;20053;-70
2023/08/22 06:19:16;;;;;;;;;;;31.40;99.90;;;;;;5116035;28;20099;-71
2023/08/22 06:21:42;;;;;;;;;;;32.50;99.90;;;;;;5115539;28;19951;-70
2023/08/22 06:24:08;;;;;;;;;;;33.40;99.90;;;;;;5115450;28;19908;-71
2023/08/22 06:26:34;;;;;;;;;;;33.30;99.90;;;;;;5115525;28;19915;-70
2023/08/22 06:28:59;;;;;;;;;;;33.30;99.90;;;;;;5115425;28;19998;-71
2023/08/22 06:31:26;;;;;;;;;;;33.90;99.90;;;;;;5115390;28;19908;-71
2023/08/22 06:33:51;;;;;;;;;;;34.30;99.90;;;;;;5115035;28;19912;-72
2023/08/22 06:36:17;;;;;;;;;;;33.70;99.90;;;;;;5096882;28;19956;-71
2023/08/22 06:38:43;;;;;;;;;;;33.70;99.90;;;;;;5115387;28;20373;-71
2023/08/22 06:41:09;;;;;;;;;;;34.70;99.90;;;;;;5115081;28;19907;-72
2023/08/22 06:43:35;;;;;;;;;;;35.30;99.90;;;;;;5115224;28;19911;-71
2023/08/22 06:46:01;;;;;;;;;;;35.50;99.90;;;;;;5117983;28;19912;-71
2023/08/22 06:48:30;;;;;;;;;;;35.40;99.40;;;;;;5114966;28;19915;-71
2023/08/22 06:50:56;;;;;;;;;;;34.50;99.90;;;;;;5115030;28;20019;-70
2023/08/22 06:53:21;;;;;;;;;;;34.40;99.90;;;;;;5096539;28;19908;-71
2023/08/22 06:55:48;;;;;;;;;;;34.20;99.90;;;;;;5114953;28;19912;-71
2023/08/22 06:58:14;;;;;;;;;;;34.30;99.90;;;;;;5114943;28;19916;-72
2023/08/22 07:00:40;;;;;;;;;;;33.80;99.90;;;;;;5114432;28;19908;-70
2023/08/22 07:03:06;;;;;;;;;;;33.30;99.90;;;;;;5114380;28;19965;-71
2023/08/22 07:05:33;;;;;;;;;;;33.60;99.90;;;;;;5114783;28;19907;-71
2023/08/22 07:07:59;;;;;;;;;;;34.20;99.90;;;;;;5114578;28;19908;-71
2023/08/22 07:10:25;;;;;;;;;;;35.20;99.20;;;;;;5114669;28;19912;-71
2023/08/22 07:12:51;;;;;;;;;;;35.80;98.10;;;;;;5114460;28;19915;-71
2023/08/22 07:15:17;;;;;;;;;;;35.80;97.80;;;;;;5115048;28;20278;-71
2023/08/22 07:17:43;;;;;;;;;;;35.70;97.90;;;;;;5113975;28;19919;-71
2023/08/22 07:20:09;;;;;;;;;;;35.50;97.60;;;;;;5114755;28;20280;-70
2023/08/22 07:22:34;;;;;;;;;;;35.70;97.60;;;;;;5114206;28;20044;-71
2023/08/22 07:25:03;;;;;;;;;;;35.80;97.60;;;;;;5114336;28;19958;-71
2023/08/22 07:27:29;;;;;;;;;;;35.80;97.60;;;;;;5114709;28;20267;-70
2023/08/22 07:29:55;;;;;;;;;;;35.30;97.80;;;;;;5114397;28;19922;-70
2023/08/22 07:32:20;;;;;;;;;;;34.40;98.80;;;;;;5113850;28;19908;-71
2023/08/22 07:34:47;;;;;;;;;;;34.40;98.90;;;;;;5113949;28;19972;-71
2023/08/22 07:37:13;;;;;;;;;;;35.10;98.90;;;;;;5114235;28;19916;-70
2023/08/22 07:39:40;;;;;;;;;;;36.00;98.00;;;;;;5113989;28;19919;-71
2023/08/22 07:42:08;;;;;;;;;;;35.90;97.20;;;;;;5113284;28;20421;-71
2023/08/22 07:44:34;;;;;;;;;;;36.20;97.70;;;;;;5114474;28;19908;-71
2023/08/22 07:47:00;;;;;;;;;;;36.10;97.60;;;;;;5113889;28;19907;-72
2023/08/22 07:49:26;;;;;;;;;;;35.80;97.30;;;;;;5113670;28;19907;-71
2023/08/22 07:51:52;;;;;;;;;;;35.20;97.80;;;;;;5114101;28;19908;-71
2023/08/22 07:54:18;;;;;;;;;;;34.60;98.30;;;;;;5113989;28;19960;-71
2023/08/22 07:56:45;;;;;;;;;;;34.50;98.10;;;;;;5113702;28;20465;-72
2023/08/22 07:59:12;;;;;;;;;;;34.20;98.40;;;;;;5114116;28;19947;-73
2023/08/22 08:01:38;;;;;;;;;;;34.50;99.00;;;;;;5113537;28;19952;-72
2023/08/22 08:04:03;;;;;;;;;;;35.10;98.10;;;;;;5113778;28;20006;-73
2023/08/22 08:06:33;;;;;;;;;;;34.50;97.60;;;;;;5113823;28;20007;-72
2023/08/22 08:09:00;;;;;;;;;;;34.30;97.80;;;;;;5113946;28;19908;-72
2023/08/22 08:11:28;;;;;;;;;;;34.30;98.00;;;;;;5112981;28;19943;-71
2023/08/22 08:13:54;;;;;;;;;;;34.10;97.90;;;;;;5116636;28;19908;-72
2023/08/22 08:16:21;;;;;;;;;;;34.40;98.00;;;;;;5116017;28;19915;-72
2023/08/22 08:18:47;;;;;;;;;;;34.70;97.60;;;;;;5113306;28;20032;-72
2023/08/22 08:21:12;;;;;;;;;;;34.30;97.40;;;;;;5113489;28;19921;-72
2023/08/22 08:23:38;;;;;;;;;;;34.50;97.20;;;;;;5113407;28;19931;-72
2023/08/22 08:26:06;;;;;;;;;;;34.20;97.30;;;;;;5095123;28;19907;-72
2023/08/22 08:28:33;;;;;;;;;;;33.90;97.70;;;;;;5113461;28;20030;-73
2023/08/22 08:30:58;;;;;;;;;;;34.00;97.60;;;;;;5113778;28;19953;-72
2023/08/22 08:33:24;;;;;;;;;;;34.30;98.00;;;;;;5113010;28;19912;-72
2023/08/22 08:35:50;;;;;;;;;;;34.80;97.70;;;;;;5113266;28;20309;-71
2023/08/22 08:38:16;;;;;;;;;;;35.10;96.20;;;;;;5113405;28;19924;-72
2023/08/22 08:40:42;;;;;;;;;;;34.90;96.50;;;;;;5113783;28;20045;-71
2023/08/22 08:43:08;;;;;;;;;;;35.40;96.60;;;;;;5113346;28;19993;-73
2023/08/22 08:45:35;;;;;;;;;;;35.80;96.20;;;;;;5113198;28;20359;-72
2023/08/22 08:48:02;;;;;;;;;;;36.30;95.80;;;;;;5113059;28;20392;-73
2023/08/22 08:50:27;;;;;;;;;;;35.50;94.60;;;;;;5112999;28;19908;-72
2023/08/22 08:52:53;;;;;;;;;;;35.30;95.30;;;;;;5113131;28;19914;-72
2023/08/22 08:55:19;;;;;;;;;;;35.30;95.30;;;;;;5113227;28;19908;-72
2023/08/22 08:57:46;;;;;;;;;;;35.40;95.40;;;;;;5113407;28;19920;-72
2023/08/22 09:00:14;;;;;;;;;;;35.50;95.60;;;;;;5113496;28;19912;-72
2023/08/22 09:02:39;;;;;;;;;;;35.10;93.90;;;;;;5113095;28;19961;-72
2023/08/22 09:05:11;;;;;;;;;;;34.60;95.00;;;;;;5094983;28;19916;-72
2023/08/22 09:07:38;;;;;;;;;;;34.50;94.70;;;;;;5113390;28;19908;-72
2023/08/22 09:10:05;;;;;;;;;;;34.50;94.70;;;;;;5094823;28;20220;-71
2023/08/22 09:12:32;;;;;;;;;;;34.20;95.30;;;;;;5113131;28;19908;-72
2023/08/22 09:14:58;;;;;;;;;;;34.40;94.70;;;;;;5113090;28;19964;-72
2023/08/22 09:17:27;;;;;;;;;;;34.30;95.00;;;;;;5112677;28;19915;-72
2023/08/22 09:19:59;;;;;;;;;;;34.50;95.50;;;;;;5112925;28;19914;-72
2023/08/22 09:22:31;;;;;;;;;;;34.50;95.30;;;;;;5112865;28;19908;-72
2023/08/22 09:24:57;;;;;;;;;;;34.60;95.60;;;;;;5116852;28;19947;-72
2023/08/22 09:27:29;;;;;;;;;;;34.80;95.40;;;;;;5116898;28;20000;-72
2023/08/22 09:30:04;;;;;;;;;;;35.00;95.20;;;;;;5116625;28;19915;-72
2023/08/22 09:32:30;;;;;;;;;;;34.90;95.40;;;;;;5116314;28;19908;-72
2023/08/22 09:34:57;;;;;;;;;;;35.00;94.80;;;;;;5097971;28;19923;-70
2023/08/22 09:37:29;;;;;;;;;;;35.40;95.10;;;;;;5116539;28;19912;-71
2023/08/22 09:39:55;;;;;;;;;;;35.50;95.00;;;;;;5116124;28;20032;-70
2023/08/22 09:42:21;;;;;;;;;;;35.30;94.30;;;;;;5117401;28;20316;-72
2023/08/22 09:44:50;;;;;;;;;;;34.90;94.40;;;;;;5120617;28;19912;-72
2023/08/22 09:47:17;;;;;;;;;;;34.60;95.00;;;;;;5116532;28;19999;-71
2023/08/22 09:49:45;;;;;;;;;;;34.40;95.10;;;;;;5116609;28;20208;-71
2023/08/22 09:52:12;;;;;;;;;;;34.60;95.00;;;;;;5116128;28;19930;-72
2023/08/22 09:54:38;;;;;;;;;;;34.80;94.20;;;;;;5116578;28;19961;-71
2023/08/22 09:57:04;;;;;;;;;;;34.50;94.70;;;;;;5116189;28;19951;-72
2023/08/22 09:59:30;;;;;;;;;;;34.70;94.70;;;;;;5115862;28;19907;-72
2023/08/22 10:01:56;;;;;;;;;;;34.90;94.20;;;;;;5116213;28;20386;-74
2023/08/22 10:04:23;;;;;;;;;;;35.20;94.20;;;;;;5116054;28;19908;-72
2023/08/22 10:06:49;;;;;;;;;;;35.20;94.20;;;;;;5097490;28;19908;-72
2023/08/22 10:09:15;;;;;;;;;;;35.10;93.90;;;;;;5116236;28;20420;-71
2023/08/22 10:11:54;;;;;;;;;;;35.10;93.90;;;;;;5116055;28;20406;-72
2023/08/22 10:14:25;;;;;;;;;;;35.60;93.50;;;;;;5116199;28;20332;-71
2023/08/22 10:16:53;;;;;;;;;;;35.50;92.90;;;;;;5115510;28;19959;-71
2023/08/22 10:19:20;;;;;;;;;;;35.30;92.40;;;;;;5097175;28;20359;-71
2023/08/22 10:21:46;;;;;;;;;;;35.30;92.70;;;;;;5115579;28;19912;-73
2023/08/22 10:24:30;;;;;;;;;;;35.40;92.60;;;;;;5095675;28;19931;-71
2023/08/22 10:27:02;;;;;;;;;;;35.20;94.00;;;;;;5095072;28;19985;-70
2023/08/22 10:29:35;;;;;;;;;;;34.10;95.40;;;;;;5094981;28;19908;-72
2023/08/22 10:32:01;;;;;;;;;;;33.90;95.20;;;;;;5095142;28;19912;-72
2023/08/22 10:34:38;;;;;;;;;;;33.90;94.90;;;;;;5094514;28;20399;-69
2023/08/22 10:37:06;;;;;;;;;;;34.10;94.80;;;;;;5094739;28;19948;-71
2023/08/22 10:39:37;;;;;;;;;;;34.60;95.30;;;;;;5076470;28;20391;-71
2023/08/22 10:42:03;;;;;;;;;;;35.10;95.30;;;;;;5094636;28;20364;-71
2023/08/22 10:44:30;;;;;;;;;;;35.50;95.00;;;;;;5095068;28;19915;-72
2023/08/22 10:47:14;;;;;;;;;;;35.50;95.00;;;;;;5094409;28;20288;-71
2023/08/22 10:49:40;;;;;;;;;;;35.60;94.60;;;;;;5095114;28;20345;-70
2023/08/22 10:52:07;;;;;;;;;;;35.80;94.60;;;;;;5097489;28;19912;-71
2023/08/22 10:54:33;;;;;;;;;;;35.90;94.40;;;;;;5096435;28;19908;-70
2023/08/22 10:57:20;;;;;;;;;;;36.10;94.40;;;;;;5115038;28;19916;-71
2023/08/22 10:59:58;;;;;;;;;;;36.10;94.70;;;;;;5115001;28;20288;-71
2023/08/22 11:02:34;;;;;;;;;;;36.40;94.80;;;;;;5114581;28;20261;-72
2023/08/22 11:05:00;;;;;;;;;;;36.50;94.10;;;;;;5115041;28;19915;-71
2023/08/22 11:07:27;;;;;;;;;;;36.50;93.90;;;;;;5114366;28;19920;-71
2023/08/22 11:09:53;;;;;;;;;;;36.50;93.50;;;;;;5114504;28;19907;-71
2023/08/22 11:12:23;;;;;;;;;;;36.40;93.40;;;;;;5117070;28;19911;-71
2023/08/22 11:14:50;;;;;;;;;;;36.60;93.30;;;;;;5119118;28;19996;-71
2023/08/22 11:17:16;;;;;;;;;;;36.50;93.40;;;;;;5114523;28;19915;-70
2023/08/22 11:19:42;;;;;;;;;;;36.50;93.60;;;;;;5115023;28;19914;-70
2023/08/22 11:22:08;;;;;;;;;;;36.50;93.30;;;;;;5114281;28;19991;-71
2023/08/22 11:24:34;;;;;;;;;;;36.60;93.00;;;;;;5114210;28;20363;-70
2023/08/22 11:27:06;;;;;;;;;;;36.80;92.90;;;;;;5114330;28;19908;-70
2023/08/22 11:29:50;;;;;;;;;;;36.60;92.40;;;;;;5114237;28;19914;-70
2023/08/22 11:32:24;;;;;;;;;;;36.60;92.40;;;;;;5114263;28;20375;-70
2023/08/22 11:34:50;;;;;;;;;;;36.80;91.80;;;;;;5092116;28;19920;-71
2023/08/22 11:37:17;;;;;;;;;;;36.90;91.90;;;;;;5094094;28;19916;-70
2023/08/22 11:39:52;;;;;;;;;;;37.20;91.70;;;;;;5094079;28;19912;-70
2023/08/22 11:42:18;;;;;;;;;;;37.30;91.50;;;;;;5093869;28;20002;-71
2023/08/22 11:44:53;;;;;;;;;;;37.40;91.30;;;;;;5093281;28;19963;-71
2023/08/22 11:47:20;;;;;;;;;;;37.10;91.50;;;;;;5091915;28;19943;-72
2023/08/22 11:49:52;;;;;;;;;;;37.40;91.50;;;;;;5093651;28;19947;-70
2023/08/22 11:52:18;;;;;;;;;;;37.40;91.40;;;;;;5092557;28;20275;-71
2023/08/22 11:54:44;;;;;;;;;;;37.40;90.80;;;;;;5093491;28;20356;-71
2023/08/22 11:57:11;;;;;;;;;;;37.40;90.70;;;;;;5093550;28;19923;-71
2023/08/22 11:59:40;;;;;;;;;;;37.30;90.60;;;;;;5093551;28;20007;-70
2023/08/22 12:02:07;;;;;;;;;;;37.10;90.70;;;;;;5093179;28;19920;-71
2023/08/22 12:04:42;;;;;;;;;;;36.80;90.70;;;;;;5094022;28;19908;-72
2023/08/22 12:07:08;;;;;;;;;;;36.40;91.00;;;;;;5092086;28;19915;-71
2023/08/22 12:09:33;;;;;;;;;;;36.20;91.00;;;;;;5093632;28;19908;-71
2023/08/22 12:12:12;;;;;;;;;;;36.10;91.00;;;;;;5093482;28;19956;-71
2023/08/22 12:14:38;;;;;;;;;;;35.90;91.10;;;;;;5093659;28;19915;-70
2023/08/22 12:17:03;;;;;;;;;;;35.80;91.20;;;;;;5092833;28;19912;-71
2023/08/22 12:19:29;;;;;;;;;;;35.50;91.20;;;;;;5093112;28;19911;-70
2023/08/22 12:21:57;;;;;;;;;;;35.30;91.50;;;;;;5091825;28;19955;-70
2023/08/22 12:24:23;;;;;;;;;;;35.10;91.50;;;;;;5093704;28;19908;-70
2023/08/22 12:26:49;;;;;;;;;;;34.70;91.90;;;;;;5093128;28;19908;-70
2023/08/22 12:29:15;;;;;;;;;;;34.60;92.00;;;;;;5092988;28;19955;-70
2023/08/22 12:31:41;;;;;;;;;;;34.40;92.10;;;;;;5093122;28;20276;-70
2023/08/22 12:34:06;;;;;;;;;;;34.00;92.70;;;;;;5096736;28;20316;-70
2023/08/22 12:36:33;;;;;;;;;;;33.80;96.20;;;;;;5113801;28;19947;-70
2023/08/22 12:38:58;;;;;;;;;;;33.50;97.60;;;;;;5113000;28;19999;-72
2023/08/22 12:41:24;;;;;;;;;;;32.90;98.30;;;;;;5113229;28;19908;-72
2023/08/22 12:43:50;;;;;;;;;;;30.10;99.90;;;;;;5113563;28;19907;-72
2023/08/22 12:46:16;;;;;;;;;;;26.70;99.90;;;;;;5113365;28;19923;-70
2023/08/22 12:48:42;;;;;;;;;;;25.60;99.90;;;;;;5113175;28;19908;-70
2023/08/22 12:51:07;;;;;;;;;;;25.20;99.90;;;;;;5113192;28;19908;-70
2023/08/22 12:53:33;;;;;;;;;;;25.40;99.90;;;;;;5113093;28;19926;-72
2023/08/22 12:55:59;;;;;;;;;;;25.80;99.90;;;;;;5113468;28;19915;-72
2023/08/22 12:58:26;;;;;;;;;;;25.60;99.90;;;;;;5114649;28;19923;-70
2023/08/22 13:00:52;;;;;;;;;;;25.70;99.90;;;;;;5117487;28;19996;-71
2023/08/22 13:03:18;;;;;;;;;;;25.70;99.90;;;;;;5116870;28;20289;-72
2023/08/22 13:05:44;;;;;;;;;;;25.40;99.90;;;;;;5117511;28;19915;-70
2023/08/22 13:08:09;;;;;;;;;;;24.60;99.90;;;;;;5117232;28;19907;-70
2023/08/22 13:10:35;;;;;;;;;;;23.40;99.90;;;;;;5117461;28;19950;-70
2023/08/22 13:13:01;;;;;;;;;;;23.40;99.90;;;;;;5117121;28;19929;-70
2023/08/22 13:15:27;;;;;;;;;;;23.90;99.90;;;;;;5116829;28;19919;-69
2023/08/22 13:17:53;;;;;;;;;;;24.40;99.90;;;;;;5116477;28;19916;-69
2023/08/22 13:20:21;;;;;;;;;;;24.60;99.90;;;;;;5116845;28;19915;-72
2023/08/22 13:22:48;;;;;;;;;;;24.80;99.90;;;;;;5116647;28;19994;-69
2023/08/22 13:25:13;;;;;;;;;;;25.00;99.90;;;;;;5116582;28;20002;-69
2023/08/22 13:27:39;;;;;;;;;;;25.20;99.90;;;;;;5116984;28;19958;-69
2023/08/22 13:30:06;;;;;;;;;;;25.30;99.90;;;;;;5116954;28;20347;-72
2023/08/22 13:32:31;;;;;;;;;;;25.50;99.90;;;;;;5116840;28;19908;-71
2023/08/22 13:34:57;;;;;;;;;;;25.90;99.90;;;;;;5116161;28;20283;-72
2023/08/22 13:37:25;;;;;;;;;;;26.10;99.90;;;;;;5116492;28;19951;-72
2023/08/22 13:39:50;;;;;;;;;;;26.40;99.90;;;;;;5116779;28;19939;-69
2023/08/22 13:42:16;;;;;;;;;;;26.60;99.90;;;;;;5116081;28;20279;-69
2023/08/22 13:44:44;;;;;;;;;;;26.80;99.90;;;;;;5116176;28;19965;-69
2023/08/22 13:47:09;;;;;;;;;;;27.20;99.90;;;;;;5115822;28;19911;-69
2023/08/22 13:49:35;;;;;;;;;;;27.50;99.90;;;;;;5116096;28;19908;-69
2023/08/22 13:52:01;;;;;;;;;;;27.80;99.90;;;;;;5116479;28;20259;-71
2023/08/22 13:54:27;;;;;;;;;;;28.00;99.90;;;;;;5116305;28;20002;-72
2023/08/22 13:56:53;;;;;;;;;;;28.30;99.90;;;;;;5097429;28;19947;-72
2023/08/22 13:59:18;;;;;;;;;;;28.50;99.90;;;;;;5116485;28;20351;-72
2023/08/22 14:01:46;;;;;;;;;;;28.80;99.90;;;;;;5115914;28;19961;-71
2023/08/22 14:04:12;;;;;;;;;;;29.00;99.90;;;;;;5115680;28;19958;-71
2023/08/22 14:06:40;;;;;;;;;;;29.00;99.90;;;;;;5115657;28;19947;-71
2023/08/22 14:09:06;;;;;;;;;;;29.10;99.90;;;;;;5115558;28;19985;-70
2023/08/22 14:11:32;;;;;;;;;;;29.00;99.90;;;;;;5115015;28;19908;-70
2023/08/22 14:13:59;;;;;;;;;;;29.00;99.90;;;;;;5115626;28;20011;-69